Time;durP1;ratioP1;P1;durP2;ratioP2;P2;SDS_P1;SDS_P2;PMS_P1;PMS_P2;Temp;Humidity;BMP_temperature;BMP_pressure;BME280_temperature;BME280_humidity;BME280_pressure;Samples;Min_cycle;Max_cycle;Signal;HPM_P1;HPM_P2
2022/04/09 00:00:46;;;;;;;;;;;1.30;99.90;;;;;;5042969;28;20000;-84
2022/04/09 00:03:12;;;;;;;;;;;1.30;99.90;;;;;;5014181;28;19921;-84
2022/04/09 00:05:37;;;;;;;;;;;1.40;99.90;;;;;;5032011;28;19959;-84
2022/04/09 00:08:03;;;;;;;;;;;1.30;99.90;;;;;;5049995;28;19921;-84
2022/04/09 00:10:28;;;;;;;;;;;1.30;99.90;;;;;;5044674;28;19917;-84
2022/04/09 00:12:54;;;;;;;;;;;1.30;99.90;;;;;;5019585;28;19917;-84
2022/04/09 00:15:20;;;;;;;;;;;1.30;99.90;;;;;;5025815;28;19917;-85
2022/04/09 00:17:46;;;;;;;;;;;1.30;99.90;;;;;;5025329;28;19916;-84
2022/04/09 00:20:12;;;;;;;;;;;1.30;99.90;;;;;;5041010;28;19927;-86
2022/04/09 00:22:38;;;;;;;;;;;1.30;99.90;;;;;;5024758;28;19921;-84
2022/04/09 00:25:07;;;;;;;;;;;1.30;99.90;;;;;;5036164;28;19920;-83
2022/04/09 00:27:33;;;;;;;;;;;1.20;99.90;;;;;;5022677;28;19925;-84
2022/04/09 00:29:59;;;;;;;;;;;1.20;99.90;;;;;;5032188;28;20295;-84
2022/04/09 00:32:24;;;;;;;;;;;1.30;99.90;;;;;;5033795;28;20004;-84
2022/04/09 00:34:50;;;;;;;;;;;1.20;99.90;;;;;;5032923;28;19917;-85
2022/04/09 00:37:15;;;;;;;;;;;1.20;99.90;;;;;;5040905;28;19913;-84
2022/04/09 00:39:41;;;;;;;;;;;1.30;99.90;;;;;;5023070;28;19976;-84
2022/04/09 00:42:13;;;;;;;;;;;1.30;99.90;;;;;;5028067;28;20338;-84
2022/04/09 00:44:39;;;;;;;;;;;1.30;99.90;;;;;;5035277;28;20363;-84
2022/04/09 00:47:05;;;;;;;;;;;1.30;99.90;;;;;;5045365;28;20284;-84
2022/04/09 00:49:31;;;;;;;;;;;1.30;99.90;;;;;;5044270;28;19917;-84
2022/04/09 00:51:58;;;;;;;;;;;1.30;99.90;;;;;;5051181;28;19917;-85
2022/04/09 00:54:24;;;;;;;;;;;1.30;99.90;;;;;;5025522;28;19917;-84
2022/04/09 00:56:51;;;;;;;;;;;1.30;99.90;;;;;;5026475;28;19917;-83
2022/04/09 00:59:21;;;;;;;;;;;1.30;99.90;;;;;;5026067;28;19964;-85
2022/04/09 01:01:47;;;;;;;;;;;1.30;99.90;;;;;;5051843;28;20380;-84
2022/04/09 01:04:12;;;;;;;;;;;1.30;99.90;;;;;;5035996;28;19918;-83
2022/04/09 01:06:38;;;;;;;;;;;1.20;99.90;;;;;;5029734;28;19916;-84
2022/04/09 01:09:05;;;;;;;;;;;1.20;99.90;;;;;;5043756;28;20300;-84
2022/04/09 01:11:31;;;;;;;;;;;1.20;99.90;;;;;;5051109;28;19913;-83
2022/04/09 01:13:57;;;;;;;;;;;1.10;99.90;;;;;;5047462;28;20569;-85
2022/04/09 01:16:24;;;;;;;;;;;1.10;99.90;;;;;;5030994;28;19932;-84
2022/04/09 01:18:50;;;;;;;;;;;1.10;99.90;;;;;;5026994;28;19925;-85
2022/04/09 01:21:15;;;;;;;;;;;1.00;99.90;;;;;;5035326;28;19925;-85
2022/04/09 01:23:41;;;;;;;;;;;1.00;99.90;;;;;;5025261;28;20306;-83
2022/04/09 01:26:06;;;;;;;;;;;0.90;99.90;;;;;;5037327;28;19916;-84
2022/04/09 01:28:32;;;;;;;;;;;0.90;99.90;;;;;;5027579;28;19932;-85
2022/04/09 01:30:58;;;;;;;;;;;0.80;99.90;;;;;;5031162;28;19955;-83
2022/04/09 01:33:24;;;;;;;;;;;0.80;99.90;;;;;;5027362;28;20015;-84
2022/04/09 01:35:49;;;;;;;;;;;0.80;99.90;;;;;;5023313;28;19921;-83
2022/04/09 01:38:15;;;;;;;;;;;0.80;99.90;;;;;;5036064;22;19951;-85
2022/04/09 01:40:41;;;;;;;;;;;0.70;99.90;;;;;;5043315;28;20418;-85
2022/04/09 01:43:06;;;;;;;;;;;0.70;99.90;;;;;;5049870;28;20433;-85
2022/04/09 01:45:32;;;;;;;;;;;0.70;99.90;;;;;;5047364;28;19913;-85
2022/04/09 01:47:58;;;;;;;;;;;0.70;99.90;;;;;;5040194;28;19913;-86
2022/04/09 01:50:26;;;;;;;;;;;0.70;99.90;;;;;;5048421;28;19917;-85
2022/04/09 01:52:54;;;;;;;;;;;0.70;99.90;;;;;;5047982;28;20338;-85
2022/04/09 01:55:20;;;;;;;;;;;0.70;99.90;;;;;;5051780;28;20410;-85
2022/04/09 01:57:46;;;;;;;;;;;0.70;99.90;;;;;;5040736;28;19970;-86
2022/04/09 02:00:12;;;;;;;;;;;0.70;99.90;;;;;;5051372;28;19958;-85
2022/04/09 02:02:38;;;;;;;;;;;0.70;99.90;;;;;;5035012;28;19980;-86
2022/04/09 02:05:04;;;;;;;;;;;0.70;99.90;;;;;;5024478;28;20414;-85
2022/04/09 02:07:29;;;;;;;;;;;0.70;99.90;;;;;;5045150;28;20287;-85
2022/04/09 02:09:55;;;;;;;;;;;0.70;99.90;;;;;;5045813;28;19913;-85
2022/04/09 02:12:20;;;;;;;;;;;0.70;99.90;;;;;;5032969;28;19936;-85
2022/04/09 02:14:46;;;;;;;;;;;0.60;99.90;;;;;;5050135;28;19967;-85
2022/04/09 02:17:12;;;;;;;;;;;0.60;99.90;;;;;;5032011;28;19917;-85
2022/04/09 02:19:38;;;;;;;;;;;0.60;99.90;;;;;;5043405;28;19909;-86
2022/04/09 02:22:04;;;;;;;;;;;0.60;99.90;;;;;;5036656;28;19932;-85
2022/04/09 02:24:30;;;;;;;;;;;0.60;99.90;;;;;;5047515;28;19917;-85
2022/04/09 02:26:55;;;;;;;;;;;0.60;99.90;;;;;;5036335;28;19989;-85
2022/04/09 02:29:21;;;;;;;;;;;0.60;99.90;;;;;;5051412;28;19917;-85
2022/04/09 02:31:47;;;;;;;;;;;0.60;99.90;;;;;;5028435;28;19923;-85
2022/04/09 02:34:12;;;;;;;;;;;0.60;99.90;;;;;;5047554;28;19909;-86
2022/04/09 02:36:38;;;;;;;;;;;0.60;99.90;;;;;;5028307;28;19984;-85
2022/04/09 02:39:04;;;;;;;;;;;0.60;99.90;;;;;;5024084;28;19931;-85
2022/04/09 02:41:29;;;;;;;;;;;0.50;99.90;;;;;;5039850;28;19928;-85
2022/04/09 02:43:55;;;;;;;;;;;0.50;99.90;;;;;;5042161;28;20310;-86
2022/04/09 02:46:21;;;;;;;;;;;0.50;99.90;;;;;;5029842;28;19921;-85
2022/04/09 02:48:47;;;;;;;;;;;0.40;99.90;;;;;;5040613;28;19914;-86
2022/04/09 02:51:12;;;;;;;;;;;0.40;99.90;;;;;;5026790;28;19924;-85
2022/04/09 02:53:38;;;;;;;;;;;0.40;99.90;;;;;;5027564;28;20416;-85
2022/04/09 02:56:04;;;;;;;;;;;0.30;99.90;;;;;;5040496;28;19913;-86
2022/04/09 02:58:30;;;;;;;;;;;0.30;99.90;;;;;;5041978;28;19917;-86
2022/04/09 03:00:55;;;;;;;;;;;0.30;99.90;;;;;;5051229;28;19924;-85
2022/04/09 03:03:21;;;;;;;;;;;0.30;99.90;;;;;;5026167;28;19921;-86
2022/04/09 03:05:46;;;;;;;;;;;0.30;99.90;;;;;;5035135;28;19971;-86
2022/04/09 03:08:12;;;;;;;;;;;0.20;99.90;;;;;;5040781;28;19941;-85
2022/04/09 03:10:37;;;;;;;;;;;0.20;99.90;;;;;;5035578;28;19917;-85
2022/04/09 03:13:06;;;;;;;;;;;0.20;99.90;;;;;;5026160;28;20368;-86
2022/04/09 03:15:31;;;;;;;;;;;0.20;99.90;;;;;;5039310;28;19952;-86
2022/04/09 03:17:57;;;;;;;;;;;0.10;99.90;;;;;;5019439;28;20318;-85
2022/04/09 03:20:22;;;;;;;;;;;0.10;99.90;;;;;;5029992;28;20326;-85
2022/04/09 03:22:48;;;;;;;;;;;0.10;99.90;;;;;;5036277;28;19952;-86
2022/04/09 03:25:14;;;;;;;;;;;0.10;99.90;;;;;;5050986;28;19928;-85
2022/04/09 03:27:40;;;;;;;;;;;0.10;99.90;;;;;;5043520;28;19963;-85
2022/04/09 03:30:06;;;;;;;;;;;0.10;99.90;;;;;;5046592;28;19967;-86
2022/04/09 03:32:32;;;;;;;;;;;0.10;99.90;;;;;;5040780;28;20379;-86
2022/04/09 03:34:57;;;;;;;;;;;0.10;99.90;;;;;;5019861;28;20012;-85
2022/04/09 03:37:23;;;;;;;;;;;0.20;99.90;;;;;;5026162;28;19925;-85
2022/04/09 03:39:49;;;;;;;;;;;0.30;99.90;;;;;;5037453;28;19916;-85
2022/04/09 03:42:15;;;;;;;;;;;0.40;99.90;;;;;;5027444;28;19983;-85
2022/04/09 03:44:41;;;;;;;;;;;0.40;99.90;;;;;;5050518;28;19959;-85
2022/04/09 03:47:06;;;;;;;;;;;0.50;99.90;;;;;;5028184;28;20403;-85
2022/04/09 03:49:33;;;;;;;;;;;0.50;99.90;;;;;;5025936;28;19933;-86
2022/04/09 03:51:58;;;;;;;;;;;0.50;99.90;;;;;;5040333;28;20295;-85
2022/04/09 03:54:25;;;;;;;;;;;0.50;99.90;;;;;;5050274;28;19912;-85
2022/04/09 03:56:51;;;;;;;;;;;0.40;99.90;;;;;;5047363;28;19944;-85
2022/04/09 03:59:17;;;;;;;;;;;0.40;99.90;;;;;;5020586;28;19917;-85
2022/04/09 04:01:52;;;;;;;;;;;0.30;99.90;;;;;;5044732;28;20447;-85
2022/04/09 04:04:17;;;;;;;;;;;0.30;99.90;;;;;;5026965;28;20368;-85
2022/04/09 04:06:43;;;;;;;;;;;0.30;99.90;;;;;;5056125;28;19935;-85
2022/04/09 04:09:09;;;;;;;;;;;0.20;99.90;;;;;;5024985;28;19948;-86
2022/04/09 04:11:34;;;;;;;;;;;0.20;99.90;;;;;;5047742;28;19920;-85
2022/04/09 04:14:00;;;;;;;;;;;0.20;99.90;;;;;;5022446;28;19923;-84
2022/04/09 04:16:25;;;;;;;;;;;0.10;99.90;;;;;;5029597;28;19972;-85
2022/04/09 04:18:51;;;;;;;;;;;0.10;99.90;;;;;;5030754;28;20085;-85
2022/04/09 04:21:17;;;;;;;;;;;0.10;99.90;;;;;;5035108;28;19917;-85
2022/04/09 04:23:42;;;;;;;;;;;0.10;99.90;;;;;;5038685;28;19917;-85
2022/04/09 04:26:08;;;;;;;;;;;0.10;99.90;;;;;;5037573;28;20015;-85
2022/04/09 04:28:33;;;;;;;;;;;0.10;99.90;;;;;;5045502;28;19920;-85
2022/04/09 04:30:59;;;;;;;;;;;0.10;99.90;;;;;;5048861;28;20132;-85
2022/04/09 04:33:24;;;;;;;;;;;0.10;99.90;;;;;;5020082;28;19917;-85
2022/04/09 04:35:50;;;;;;;;;;;0.20;99.90;;;;;;5027489;28;20046;-85
2022/04/09 04:38:16;;;;;;;;;;;0.20;99.90;;;;;;5021143;28;19951;-85
2022/04/09 04:40:41;;;;;;;;;;;0.30;99.90;;;;;;5022313;28;20423;-85
2022/04/09 04:43:07;;;;;;;;;;;0.40;99.90;;;;;;5020351;28;19920;-84
2022/04/09 04:45:32;;;;;;;;;;;0.40;99.90;;;;;;5039590;28;20360;-85
2022/04/09 04:47:58;;;;;;;;;;;0.50;99.90;;;;;;5028540;28;19923;-85
2022/04/09 04:50:24;;;;;;;;;;;0.40;99.90;;;;;;5017243;28;19917;-85
2022/04/09 04:52:49;;;;;;;;;;;0.40;99.90;;;;;;5017315;28;19948;-85
2022/04/09 04:55:15;;;;;;;;;;;0.40;99.90;;;;;;5039645;28;19918;-85
2022/04/09 04:57:50;;;;;;;;;;;0.40;99.90;;;;;;5038004;28;19952;-85
2022/04/09 05:00:21;;;;;;;;;;;0.30;99.90;;;;;;5014572;28;19917;-85
2022/04/09 05:02:46;;;;;;;;;;;0.30;99.90;;;;;;5046714;28;19917;-85
2022/04/09 05:05:12;;;;;;;;;;;0.30;99.90;;;;;;5016148;28;20299;-84
2022/04/09 05:07:45;;;;;;;;;;;0.30;99.90;;;;;;5039837;28;19913;-85
2022/04/09 05:10:15;;;;;;;;;;;0.30;99.90;;;;;;5041355;28;20437;-85
2022/04/09 05:12:41;;;;;;;;;;;0.30;99.90;;;;;;5046849;28;19919;-85
2022/04/09 05:15:07;;;;;;;;;;;0.30;99.90;;;;;;5035477;28;19912;-84
2022/04/09 05:17:33;;;;;;;;;;;0.40;99.90;;;;;;5037254;28;19913;-85
2022/04/09 05:19:59;;;;;;;;;;;0.40;99.90;;;;;;5035281;28;20023;-85
2022/04/09 05:22:28;;;;;;;;;;;0.40;99.90;;;;;;5037348;28;20695;-85
2022/04/09 05:24:54;;;;;;;;;;;0.50;99.90;;;;;;5037095;28;20007;-85
2022/04/09 05:27:19;;;;;;;;;;;0.50;99.90;;;;;;5022578;28;20238;-85
2022/04/09 05:29:45;;;;;;;;;;;0.60;99.90;;;;;;5025504;28;19917;-85
2022/04/09 05:32:10;;;;;;;;;;;0.60;99.90;;;;;;5050506;28;19913;-85
2022/04/09 05:34:36;;;;;;;;;;;0.60;99.90;;;;;;5028591;28;19917;-84
2022/04/09 05:37:01;;;;;;;;;;;0.70;99.90;;;;;;5030419;28;19944;-85
2022/04/09 05:39:27;;;;;;;;;;;0.70;99.90;;;;;;5038437;28;19970;-85
2022/04/09 05:41:52;;;;;;;;;;;0.80;99.90;;;;;;5027981;28;19928;-85
2022/04/09 05:44:18;;;;;;;;;;;0.90;99.90;;;;;;5016303;28;19917;-85
2022/04/09 05:46:43;;;;;;;;;;;1.00;99.90;;;;;;5016440;28;19917;-85
2022/04/09 05:49:09;;;;;;;;;;;1.20;99.90;;;;;;5030788;28;19971;-86
2022/04/09 05:51:36;;;;;;;;;;;1.30;99.90;;;;;;5022340;28;19920;-85
2022/04/09 05:54:02;;;;;;;;;;;1.30;99.90;;;;;;5027631;28;19924;-85
2022/04/09 05:56:28;;;;;;;;;;;1.30;99.90;;;;;;5029971;28;19917;-85
2022/04/09 05:58:53;;;;;;;;;;;1.30;99.90;;;;;;5017407;28;19928;-85
2022/04/09 06:01:19;;;;;;;;;;;1.30;99.90;;;;;;5023212;28;19925;-85
2022/04/09 06:03:45;;;;;;;;;;;1.30;99.90;;;;;;5018030;28;19933;-83
2022/04/09 06:06:11;;;;;;;;;;;1.40;99.90;;;;;;5036856;28;20365;-85
2022/04/09 06:08:37;;;;;;;;;;;1.40;99.90;;;;;;5043120;28;19966;-85
2022/04/09 06:11:03;;;;;;;;;;;1.50;99.90;;;;;;5036545;28;19913;-83
2022/04/09 06:13:28;;;;;;;;;;;1.60;99.90;;;;;;5052109;28;19916;-82
2022/04/09 06:15:54;;;;;;;;;;;1.60;99.90;;;;;;5023215;28;19922;-83
2022/04/09 06:18:20;;;;;;;;;;;1.70;99.90;;;;;;5042642;28;19921;-83
2022/04/09 06:20:46;;;;;;;;;;;1.60;99.90;;;;;;5018472;28;19925;-83
2022/04/09 06:23:11;;;;;;;;;;;1.70;99.90;;;;;;5050534;28;19908;-84
2022/04/09 06:25:37;;;;;;;;;;;1.70;99.90;;;;;;5017398;28;19936;-83
2022/04/09 06:28:02;;;;;;;;;;;1.70;99.90;;;;;;5027148;28;20445;-82
2022/04/09 06:30:28;;;;;;;;;;;1.80;99.90;;;;;;5025184;28;20380;-84
2022/04/09 06:32:53;;;;;;;;;;;1.80;99.90;;;;;;5022712;28;19921;-83
2022/04/09 06:35:19;;;;;;;;;;;1.80;99.90;;;;;;5015916;28;19928;-84
2022/04/09 06:37:45;;;;;;;;;;;1.90;99.90;;;;;;5040504;28;19920;-83
2022/04/09 06:40:12;;;;;;;;;;;1.90;99.90;;;;;;5015125;28;19940;-86
2022/04/09 06:42:38;;;;;;;;;;;2.00;99.90;;;;;;5041236;28;19917;-85
2022/04/09 06:45:05;;;;;;;;;;;2.10;99.90;;;;;;5040582;28;19917;-85
2022/04/09 06:47:30;;;;;;;;;;;2.30;99.90;;;;;;5035647;28;19917;-86
2022/04/09 06:49:57;;;;;;;;;;;2.40;99.90;;;;;;5034113;28;19921;-84
2022/04/09 06:52:23;;;;;;;;;;;2.50;99.90;;;;;;5041064;28;19944;-86
2022/04/09 06:54:49;;;;;;;;;;;2.50;99.90;;;;;;5031749;28;19952;-83
2022/04/09 06:57:14;;;;;;;;;;;2.60;99.90;;;;;;5016099;28;19961;-83
2022/04/09 06:59:40;;;;;;;;;;;2.60;99.90;;;;;;5014101;28;20007;-83
2022/04/09 07:02:06;;;;;;;;;;;2.80;99.90;;;;;;5022898;28;19974;-83
2022/04/09 07:04:32;;;;;;;;;;;2.80;99.90;;;;;;5029422;28;19975;-83
2022/04/09 07:06:58;;;;;;;;;;;2.90;99.90;;;;;;5034332;28;19913;-84
2022/04/09 07:09:23;;;;;;;;;;;3.00;99.90;;;;;;5042068;28;19924;-83
2022/04/09 07:11:49;;;;;;;;;;;3.10;99.90;;;;;;5017829;28;19921;-83
2022/04/09 07:14:14;;;;;;;;;;;3.00;99.90;;;;;;5013848;28;20214;-83
2022/04/09 07:16:40;;;;;;;;;;;3.00;99.90;;;;;;5017457;28;19917;-83
2022/04/09 07:19:09;;;;;;;;;;;3.00;99.90;;;;;;5020992;28;19925;-84
2022/04/09 07:21:34;;;;;;;;;;;3.00;99.90;;;;;;5028827;28;19916;-83
2022/04/09 07:24:00;;;;;;;;;;;3.10;99.90;;;;;;5018082;28;19921;-83
2022/04/09 07:26:25;;;;;;;;;;;3.10;99.90;;;;;;5031653;28;19920;-83
2022/04/09 07:28:53;;;;;;;;;;;3.20;99.90;;;;;;5029482;28;19917;-83
2022/04/09 07:31:18;;;;;;;;;;;3.30;99.90;;;;;;5021047;28;19913;-84
2022/04/09 07:33:44;;;;;;;;;;;3.30;99.90;;;;;;5017979;28;19924;-84
2022/04/09 07:36:09;;;;;;;;;;;3.40;99.90;;;;;;5043774;28;20350;-83
2022/04/09 07:38:35;;;;;;;;;;;3.50;99.90;;;;;;5056005;22;19939;-83
2022/04/09 07:41:00;;;;;;;;;;;3.60;99.90;;;;;;5096947;28;19931;-84
2022/04/09 07:43:26;;;;;;;;;;;3.80;99.90;;;;;;5076863;28;19916;-84
2022/04/09 07:45:51;;;;;;;;;;;4.00;99.90;;;;;;5093633;28;19912;-83
2022/04/09 07:48:17;;;;;;;;;;;4.10;99.90;;;;;;5091480;28;19948;-83
2022/04/09 07:50:43;;;;;;;;;;;4.20;99.90;;;;;;5073097;28;20435;-83
2022/04/09 07:53:09;;;;;;;;;;;4.30;99.90;;;;;;5082412;28;19922;-83
2022/04/09 07:55:35;;;;;;;;;;;4.40;99.90;;;;;;5072684;28;20384;-84
2022/04/09 07:58:01;;;;;;;;;;;4.50;99.90;;;;;;5074676;28;19958;-83
2022/04/09 08:00:27;;;;;;;;;;;4.50;99.90;;;;;;5090690;28;20135;-84
2022/04/09 08:02:52;;;;;;;;;;;4.50;99.90;;;;;;5054529;28;20235;-83
2022/04/09 08:05:18;;;;;;;;;;;4.70;99.90;;;;;;5075916;28;19919;-82
2022/04/09 08:07:44;;;;;;;;;;;5.00;99.90;;;;;;5075918;28;19921;-85
2022/04/09 08:10:11;;;;;;;;;;;5.20;99.90;;;;;;5073737;28;20004;-84
2022/04/09 08:12:37;;;;;;;;;;;5.30;99.90;;;;;;5075949;28;19927;-83
2022/04/09 08:15:04;;;;;;;;;;;5.60;99.90;;;;;;5073828;28;19912;-85
2022/04/09 08:17:29;;;;;;;;;;;6.10;99.90;;;;;;5073819;28;19924;-84
2022/04/09 08:19:56;;;;;;;;;;;6.60;99.90;;;;;;5053613;28;19920;-84
2022/04/09 08:22:21;;;;;;;;;;;7.00;99.90;;;;;;5074165;28;19920;-84
2022/04/09 08:24:47;;;;;;;;;;;7.10;99.90;;;;;;5078221;28;19942;-83
2022/04/09 08:27:13;;;;;;;;;;;7.30;99.90;;;;;;5078080;28;19935;-83
2022/04/09 08:29:38;;;;;;;;;;;7.50;99.90;;;;;;5075356;28;20006;-85
2022/04/09 08:32:04;;;;;;;;;;;7.50;99.90;;;;;;5076960;28;19921;-83
2022/04/09 08:34:33;;;;;;;;;;;7.70;99.90;;;;;;5076936;28;19920;-83
2022/04/09 08:36:59;;;;;;;;;;;7.90;99.90;;;;;;5077120;28;20023;-83
2022/04/09 08:39:24;;;;;;;;;;;7.90;98.70;;;;;;5078259;28;19977;-84
2022/04/09 08:41:52;;;;;;;;;;;8.10;99.90;;;;;;5059660;28;19928;-84
2022/04/09 08:44:18;;;;;;;;;;;7.90;97.80;;;;;;5077187;28;19924;-84
2022/04/09 08:46:45;;;;;;;;;;;7.70;97.30;;;;;;5076721;28;19943;-83
2022/04/09 08:49:11;;;;;;;;;;;7.50;99.50;;;;;;5076534;28;19928;-83
2022/04/09 08:51:36;;;;;;;;;;;7.50;99.90;;;;;;5078193;28;19934;-85
2022/04/09 08:54:02;;;;;;;;;;;7.50;99.90;;;;;;5082724;28;20007;-85
2022/04/09 08:56:29;;;;;;;;;;;7.70;99.90;;;;;;5076795;28;19917;-84
2022/04/09 08:58:58;;;;;;;;;;;7.90;99.90;;;;;;5075670;28;19912;-84
2022/04/09 09:01:24;;;;;;;;;;;8.30;99.90;;;;;;5075284;28;20405;-84
2022/04/09 09:03:50;;;;;;;;;;;8.40;95.30;;;;;;5076619;28;19916;-83
2022/04/09 09:06:27;;;;;;;;;;;8.50;97.20;;;;;;5093367;28;20368;-83
2022/04/09 09:08:54;;;;;;;;;;;8.90;97.60;;;;;;5076624;28;20003;-83
2022/04/09 09:11:20;;;;;;;;;;;9.20;94.70;;;;;;5075348;28;19924;-83
2022/04/09 09:13:50;;;;;;;;;;;9.40;93.30;;;;;;5072683;28;20265;-84
2022/04/09 09:16:29;;;;;;;;;;;9.40;90.00;;;;;;5073749;28;19912;-83
2022/04/09 09:18:56;;;;;;;;;;;9.20;90.20;;;;;;5069734;28;19919;-84
2022/04/09 09:21:23;;;;;;;;;;;8.90;92.70;;;;;;5074117;28;19921;-84
2022/04/09 09:23:52;;;;;;;;;;;8.80;93.70;;;;;;5074010;28;19916;-83
2022/04/09 09:26:23;;;;;;;;;;;8.70;94.20;;;;;;5078153;28;19916;-83
2022/04/09 09:28:54;;;;;;;;;;;8.60;93.20;;;;;;5094277;28;19916;-83
2022/04/09 09:31:19;;;;;;;;;;;8.50;94.50;;;;;;5063610;28;19920;-83
2022/04/09 09:33:47;;;;;;;;;;;8.20;95.20;;;;;;5080952;28;19916;-83
2022/04/09 09:36:12;;;;;;;;;;;8.20;96.90;;;;;;5078320;28;19912;-83
2022/04/09 09:38:40;;;;;;;;;;;8.00;94.40;;;;;;5062893;28;19916;-84
2022/04/09 09:41:20;;;;;;;;;;;7.80;96.20;;;;;;5096224;28;19924;-84
2022/04/09 09:43:59;;;;;;;;;;;8.00;96.90;;;;;;5082356;28;19916;-84
2022/04/09 09:46:24;;;;;;;;;;;8.40;95.80;;;;;;5081769;28;19959;-83
2022/04/09 09:48:50;;;;;;;;;;;8.50;94.70;;;;;;5080151;28;19916;-85
2022/04/09 09:51:21;;;;;;;;;;;8.70;94.50;;;;;;5082311;28;19916;-84
2022/04/09 09:53:46;;;;;;;;;;;8.70;91.80;;;;;;5077510;28;19924;-85
2022/04/09 09:56:12;;;;;;;;;;;8.60;92.70;;;;;;5082591;28;19921;-85
2022/04/09 09:58:38;;;;;;;;;;;8.60;92.90;;;;;;5088635;28;19979;-83
2022/04/09 10:01:04;;;;;;;;;;;8.50;94.10;;;;;;5092006;28;19908;-83
2022/04/09 10:03:29;;;;;;;;;;;8.30;94.00;;;;;;5090618;28;19958;-84
2022/04/09 10:05:55;;;;;;;;;;;8.30;94.90;;;;;;5088031;28;19916;-83
2022/04/09 10:08:21;;;;;;;;;;;8.30;95.20;;;;;;5070764;28;19928;-84
2022/04/09 10:10:48;;;;;;;;;;;8.50;95.50;;;;;;5071083;28;19919;-84
2022/04/09 10:13:18;;;;;;;;;;;8.80;95.40;;;;;;5071651;28;20277;-84
2022/04/09 10:15:46;;;;;;;;;;;9.10;93.60;;;;;;5071754;28;19917;-83
2022/04/09 10:18:12;;;;;;;;;;;9.10;89.40;;;;;;5053615;28;19917;-83
2022/04/09 10:20:39;;;;;;;;;;;9.00;90.10;;;;;;5071132;28;19912;-84
2022/04/09 10:23:08;;;;;;;;;;;9.20;90.10;;;;;;5051437;28;19924;-84
2022/04/09 10:25:34;;;;;;;;;;;9.60;89.20;;;;;;5071251;28;19916;-83
2022/04/09 10:28:01;;;;;;;;;;;9.70;86.70;;;;;;5055375;28;19921;-84
2022/04/09 10:30:30;;;;;;;;;;;9.90;86.30;;;;;;5072126;28;20348;-83
2022/04/09 10:32:57;;;;;;;;;;;10.10;84.20;;;;;;5071107;28;20418;-84
2022/04/09 10:35:23;;;;;;;;;;;10.30;81.70;;;;;;5072811;28;20284;-84
2022/04/09 10:38:07;;;;;;;;;;;10.30;77.90;;;;;;5073668;28;19912;-84
2022/04/09 10:40:36;;;;;;;;;;;10.20;78.10;;;;;;5072591;28;19916;-83
2022/04/09 10:43:03;;;;;;;;;;;10.00;77.90;;;;;;5071923;28;20012;-84
2022/04/09 10:45:28;;;;;;;;;;;9.80;78.60;;;;;;5073844;28;19939;-83
2022/04/09 10:48:04;;;;;;;;;;;9.70;84.50;;;;;;5071651;28;19916;-83
2022/04/09 10:50:49;;;;;;;;;;;9.90;84.60;;;;;;5067541;28;19952;-84
2022/04/09 10:53:16;;;;;;;;;;;9.80;78.30;;;;;;5072327;28;19965;-84
2022/04/09 10:55:41;;;;;;;;;;;9.60;81.60;;;;;;5072117;28;19977;-84
2022/04/09 10:58:10;;;;;;;;;;;9.50;80.00;;;;;;5070745;28;19925;-83
2022/04/09 11:00:37;;;;;;;;;;;9.50;83.70;;;;;;5054603;28;19970;-83
2022/04/09 11:03:11;;;;;;;;;;;9.80;83.70;;;;;;5087364;28;19931;-84
2022/04/09 11:05:40;;;;;;;;;;;9.90;80.50;;;;;;5068337;28;19959;-84
2022/04/09 11:08:07;;;;;;;;;;;9.80;78.70;;;;;;5070676;28;19917;-83
2022/04/09 11:10:32;;;;;;;;;;;9.70;78.60;;;;;;5077469;28;19916;-83
2022/04/09 11:12:58;;;;;;;;;;;9.60;77.70;;;;;;5070961;28;19913;-83
2022/04/09 11:15:23;;;;;;;;;;;9.70;78.20;;;;;;5069197;28;20301;-86
2022/04/09 11:17:49;;;;;;;;;;;9.70;76.00;;;;;;5072186;28;19963;-85
2022/04/09 11:20:14;;;;;;;;;;;9.80;76.90;;;;;;5076138;28;19920;-85
2022/04/09 11:22:51;;;;;;;;;;;9.70;73.50;;;;;;5068655;28;20395;-85
2022/04/09 11:25:28;;;;;;;;;;;9.90;77.50;;;;;;5069532;28;19920;-85
2022/04/09 11:28:07;;;;;;;;;;;9.90;75.10;;;;;;5068964;28;19963;-85
2022/04/09 11:30:32;;;;;;;;;;;10.10;72.30;;;;;;5061660;28;19921;-85
2022/04/09 11:32:58;;;;;;;;;;;10.10;72.10;;;;;;5070456;28;19913;-85
2022/04/09 11:35:26;;;;;;;;;;;10.00;67.00;;;;;;5070459;28;20007;-86
2022/04/09 11:37:52;;;;;;;;;;;10.00;69.60;;;;;;5053093;28;19916;-85
2022/04/09 11:40:19;;;;;;;;;;;9.60;63.20;;;;;;5068270;28;20019;-85
2022/04/09 11:42:48;;;;;;;;;;;9.50;69.40;;;;;;5067324;28;19971;-84
2022/04/09 11:45:20;;;;;;;;;;;9.10;72.10;;;;;;5065106;28;20070;-84
2022/04/09 11:47:46;;;;;;;;;;;9.20;76.20;;;;;;5069293;28;20291;-85
2022/04/09 11:50:12;;;;;;;;;;;9.30;74.90;;;;;;5065911;28;19924;-84
2022/04/09 11:52:37;;;;;;;;;;;9.30;68.60;;;;;;5070201;28;19916;-84
2022/04/09 11:55:08;;;;;;;;;;;9.40;68.10;;;;;;5069246;28;19919;-85
2022/04/09 11:57:33;;;;;;;;;;;9.40;69.70;;;;;;5067001;28;20472;-85
2022/04/09 11:59:59;;;;;;;;;;;9.60;70.10;;;;;;5069197;28;20013;-86
2022/04/09 12:02:25;;;;;;;;;;;9.70;67.70;;;;;;5069501;28;19920;-87
2022/04/09 12:04:51;;;;;;;;;;;9.70;64.10;;;;;;5070883;28;19924;-87
2022/04/09 12:07:17;;;;;;;;;;;9.70;62.00;;;;;;5068478;28;19912;-86
2022/04/09 12:09:43;;;;;;;;;;;9.60;63.10;;;;;;5058246;28;19928;-86
2022/04/09 12:12:09;;;;;;;;;;;9.70;66.90;;;;;;5064338;28;20372;-86
2022/04/09 12:14:34;;;;;;;;;;;9.80;65.90;;;;;;5068769;28;19924;-86
2022/04/09 12:17:13;;;;;;;;;;;9.90;64.20;;;;;;5070866;28;19939;-86
2022/04/09 12:19:43;;;;;;;;;;;10.00;64.70;;;;;;5068370;28;19917;-83
2022/04/09 12:22:19;;;;;;;;;;;10.10;60.40;;;;;;5067186;28;20400;-86
2022/04/09 12:24:54;;;;;;;;;;;10.40;62.70;;;;;;5051712;28;19917;-85
2022/04/09 12:27:40;;;;;;;;;;;10.50;59.20;;;;;;5045257;28;19921;-85
2022/04/09 12:30:06;;;;;;;;;;;10.20;59.70;;;;;;5061195;28;19913;-83
2022/04/09 12:32:33;;;;;;;;;;;9.70;60.70;;;;;;5089839;28;19927;-85
2022/04/09 12:35:09;;;;;;;;;;;9.80;61.20;;;;;;5075065;28;19927;-84
2022/04/09 12:37:44;;;;;;;;;;;9.90;61.00;;;;;;5065722;28;19916;-84
2022/04/09 12:40:21;;;;;;;;;;;9.50;61.20;;;;;;5084363;28;20420;-85
2022/04/09 12:42:47;;;;;;;;;;;9.10;63.50;;;;;;5071770;28;19932;-84
2022/04/09 12:45:12;;;;;;;;;;;8.90;66.20;;;;;;5074104;28;20384;-85
2022/04/09 12:47:38;;;;;;;;;;;9.00;68.00;;;;;;5072742;28;19916;-85
2022/04/09 12:50:04;;;;;;;;;;;9.00;69.10;;;;;;5072196;28;19917;-84
2022/04/09 12:52:30;;;;;;;;;;;9.10;70.80;;;;;;5072577;28;19927;-84
2022/04/09 12:54:56;;;;;;;;;;;9.20;68.00;;;;;;5055640;28;19917;-85
2022/04/09 12:57:22;;;;;;;;;;;9.30;69.10;;;;;;5072328;28;19959;-84
2022/04/09 12:59:47;;;;;;;;;;;9.40;68.10;;;;;;5068279;28;19913;-85
2022/04/09 13:02:13;;;;;;;;;;;9.50;66.50;;;;;;5050169;28;20101;-85
2022/04/09 13:04:39;;;;;;;;;;;9.70;67.40;;;;;;5072459;28;19912;-85
2022/04/09 13:07:04;;;;;;;;;;;9.80;66.60;;;;;;5073791;28;19923;-85
2022/04/09 13:09:30;;;;;;;;;;;9.80;64.30;;;;;;5073464;28;20349;-84
2022/04/09 13:11:55;;;;;;;;;;;9.70;65.30;;;;;;5070098;28;20019;-85
2022/04/09 13:14:21;;;;;;;;;;;9.50;64.30;;;;;;5069730;28;19912;-85
2022/04/09 13:16:48;;;;;;;;;;;9.50;65.40;;;;;;5071090;28;19916;-85
2022/04/09 13:19:13;;;;;;;;;;;9.30;64.90;;;;;;5069485;28;19917;-85
2022/04/09 13:21:39;;;;;;;;;;;9.00;65.70;;;;;;5078303;28;19916;-85
2022/04/09 13:24:06;;;;;;;;;;;8.90;63.40;;;;;;5053236;28;19917;-85
2022/04/09 13:26:32;;;;;;;;;;;8.70;63.50;;;;;;5075735;28;20380;-85
2022/04/09 13:28:57;;;;;;;;;;;8.60;65.30;;;;;;5066321;28;19923;-84
2022/04/09 13:31:28;;;;;;;;;;;8.70;68.90;;;;;;5072347;28;19924;-84
2022/04/09 13:33:54;;;;;;;;;;;8.70;68.40;;;;;;5070503;28;19916;-85
2022/04/09 13:36:20;;;;;;;;;;;8.50;66.00;;;;;;5057811;28;19917;-86
2022/04/09 13:38:45;;;;;;;;;;;8.30;66.40;;;;;;5063960;28;20664;-85
2022/04/09 13:41:16;;;;;;;;;;;8.20;65.50;;;;;;5076804;23;20015;-82
2022/04/09 13:43:41;;;;;;;;;;;8.00;67.80;;;;;;5093740;28;19920;-82
2022/04/09 13:46:07;;;;;;;;;;;7.90;68.10;;;;;;5091262;28;19973;-81
2022/04/09 13:48:32;;;;;;;;;;;7.90;71.60;;;;;;5063575;28;19920;-81
2022/04/09 13:50:58;;;;;;;;;;;7.80;73.60;;;;;;5078543;28;19924;-82
2022/04/09 13:53:23;;;;;;;;;;;7.90;72.30;;;;;;5076691;28;19969;-84
2022/04/09 13:55:49;;;;;;;;;;;8.00;75.20;;;;;;5081809;28;19922;-83
2022/04/09 13:58:14;;;;;;;;;;;8.20;76.50;;;;;;5079066;28;20385;-82
2022/04/09 14:00:40;;;;;;;;;;;8.30;75.30;;;;;;5077044;28;20282;-82
2022/04/09 14:03:06;;;;;;;;;;;8.40;74.70;;;;;;5078821;28;19921;-82
2022/04/09 14:05:32;;;;;;;;;;;8.40;72.10;;;;;;5065455;28;19970;-82
2022/04/09 14:07:57;;;;;;;;;;;8.50;73.40;;;;;;5087852;28;19912;-82
2022/04/09 14:10:23;;;;;;;;;;;8.60;71.20;;;;;;5074075;28;19916;-82
2022/04/09 14:12:48;;;;;;;;;;;8.60;69.40;;;;;;5078062;28;19952;-82
2022/04/09 14:15:14;;;;;;;;;;;8.40;65.90;;;;;;5087892;28;19913;-79
2022/04/09 14:17:39;;;;;;;;;;;8.20;65.60;;;;;;5078083;28;20289;-80
2022/04/09 14:20:05;;;;;;;;;;;8.30;66.90;;;;;;5075707;28;19920;-82
2022/04/09 14:22:31;;;;;;;;;;;8.50;68.20;;;;;;5061426;28;19924;-82
2022/04/09 14:24:56;;;;;;;;;;;8.50;66.70;;;;;;5081943;28;19913;-82